createdAt,value
2019-03-30T00:01:03.956Z,9.10
2019-03-30T00:03:33.460Z,9.10
2019-03-30T00:06:02.875Z,9.10
2019-03-30T00:08:33.909Z,9.10
2019-03-30T00:11:03.468Z,9.10
2019-03-30T00:13:32.885Z,9.10
2019-03-30T00:16:02.240Z,9.20
2019-03-30T00:18:31.614Z,9.10
2019-03-30T00:21:01.969Z,9.20
2019-03-30T00:23:31.309Z,9.30
2019-03-30T00:26:00.718Z,9.30
2019-03-30T00:28:30.092Z,9.30
2019-03-30T00:30:59.472Z,9.30
2019-03-30T00:33:28.950Z,9.20
2019-03-30T00:35:58.362Z,9.10
2019-03-30T00:38:27.737Z,9.00
2019-03-30T00:40:57.099Z,9.00
2019-03-30T00:43:26.472Z,8.90
2019-03-30T00:45:55.832Z,8.90
2019-03-30T00:48:25.191Z,8.80
2019-03-30T00:50:54.653Z,8.60
2019-03-30T00:53:24.018Z,8.70
2019-03-30T00:55:53.458Z,8.80
2019-03-30T00:58:25.486Z,8.60
2019-03-30T01:00:54.035Z,8.60
2019-03-30T01:03:23.396Z,8.50
2019-03-30T01:05:52.766Z,8.50
2019-03-30T01:08:22.220Z,8.50
2019-03-30T01:10:51.647Z,8.30
2019-03-30T01:13:21.080Z,8.20
2019-03-30T01:15:50.530Z,8.20
2019-03-30T01:18:19.958Z,8.20
2019-03-30T01:20:49.425Z,8.20
2019-03-30T01:23:19.897Z,8.20
2019-03-30T01:25:49.351Z,8.10
2019-03-30T01:28:18.693Z,8.10
2019-03-30T01:30:48.077Z,8.10
2019-03-30T01:33:17.568Z,8.00
2019-03-30T01:35:47.302Z,8.00
2019-03-30T01:38:16.798Z,7.90
2019-03-30T01:40:46.282Z,7.90
2019-03-30T01:43:15.652Z,7.90
2019-03-30T01:45:46.916Z,7.80
2019-03-30T01:48:16.396Z,7.80
2019-03-30T01:50:45.772Z,7.90
2019-03-30T01:53:15.114Z,7.80
2019-03-30T01:55:44.458Z,7.90
2019-03-30T01:58:13.845Z,7.90
2019-03-30T02:00:43.269Z,7.90
2019-03-30T02:03:12.612Z,7.80
2019-03-30T02:05:42.005Z,7.70
2019-03-30T02:08:11.476Z,7.70
2019-03-30T02:10:45.803Z,7.70
2019-03-30T02:13:15.324Z,7.70
2019-03-30T02:15:44.788Z,7.70
2019-03-30T02:18:15.321Z,7.70
2019-03-30T02:20:46.988Z,7.60
2019-03-30T02:23:16.480Z,7.60
2019-03-30T02:25:45.921Z,7.50
2019-03-30T02:28:15.440Z,7.40
2019-03-30T02:30:46.618Z,7.40
2019-03-30T02:33:16.157Z,7.40
2019-03-30T02:35:45.519Z,7.40
2019-03-30T02:38:15.061Z,7.30
2019-03-30T02:40:44.513Z,7.30
2019-03-30T02:43:13.989Z,7.30
2019-03-30T02:45:43.430Z,7.20
2019-03-30T02:48:12.854Z,7.10
2019-03-30T02:50:49.820Z,7.10
2019-03-30T02:53:13.507Z,7.10
2019-03-30T02:55:42.960Z,7.20
2019-03-30T02:58:12.312Z,7.10
2019-03-30T03:00:41.836Z,7.00
2019-03-30T03:03:11.326Z,7.10
2019-03-30T03:05:40.755Z,7.10
2019-03-30T03:08:10.226Z,7.00
2019-03-30T03:10:39.645Z,7.00
2019-03-30T03:13:09.177Z,7.00
2019-03-30T03:15:38.596Z,7.00
2019-03-30T03:18:07.962Z,7.00
2019-03-30T03:20:37.379Z,7.00
2019-03-30T03:23:06.798Z,7.00
2019-03-30T03:25:36.292Z,7.00
2019-03-30T03:28:06.132Z,6.90
2019-03-30T03:30:35.516Z,6.90
2019-03-30T03:33:05.915Z,6.90
2019-03-30T03:35:35.362Z,6.90
2019-03-30T03:38:05.694Z,6.80
2019-03-30T03:40:35.090Z,6.80
2019-03-30T03:43:05.317Z,6.70
2019-03-30T03:45:34.761Z,6.80
2019-03-30T03:48:04.128Z,6.80
2019-03-30T03:50:39.514Z,6.70
2019-03-30T03:53:14.648Z,6.70
2019-03-30T03:55:46.060Z,6.70
2019-03-30T03:58:17.881Z,6.80
2019-03-30T04:00:47.599Z,6.90
2019-03-30T04:03:18.572Z,6.80
2019-03-30T04:05:48.728Z,6.90
2019-03-30T04:08:18.318Z,6.90
2019-03-30T04:10:48.087Z,7.00
2019-03-30T04:13:17.789Z,7.00
2019-03-30T04:15:47.428Z,7.10
2019-03-30T04:18:18.202Z,7.20
2019-03-30T04:20:47.573Z,7.10
2019-03-30T04:23:16.989Z,7.10
2019-03-30T04:25:46.507Z,7.00
2019-03-30T04:28:15.941Z,7.00
2019-03-30T04:30:45.285Z,7.00
2019-03-30T04:33:14.749Z,7.00
2019-03-30T04:35:44.097Z,7.00
2019-03-30T04:38:14.369Z,6.90
2019-03-30T04:40:44.213Z,7.00
2019-03-30T04:43:13.624Z,7.00
2019-03-30T04:45:42.981Z,7.00
2019-03-30T04:48:12.485Z,7.00
2019-03-30T04:50:41.854Z,7.10
2019-03-30T04:53:11.323Z,7.00
2019-03-30T04:55:40.676Z,7.10
2019-03-30T04:58:13.230Z,7.00
2019-03-30T05:00:41.079Z,6.90
2019-03-30T05:03:10.570Z,6.90
2019-03-30T05:05:42.891Z,6.80
2019-03-30T05:08:11.031Z,6.80
2019-03-30T05:10:40.455Z,6.70
2019-03-30T05:13:10.332Z,6.70
2019-03-30T05:15:39.867Z,6.70
2019-03-30T05:18:09.297Z,6.70
2019-03-30T05:20:38.643Z,6.60
2019-03-30T05:23:07.995Z,6.60
2019-03-30T05:25:38.980Z,6.60
2019-03-30T05:28:09.311Z,6.70
2019-03-30T05:30:38.675Z,6.80
2019-03-30T05:33:08.112Z,6.80
2019-03-30T05:35:37.465Z,6.80
2019-03-30T05:38:06.909Z,6.80
2019-03-30T05:40:36.333Z,6.90
2019-03-30T05:43:05.767Z,6.90
2019-03-30T05:45:35.120Z,7.00
2019-03-30T05:48:04.497Z,7.00
2019-03-30T05:50:33.854Z,7.00
2019-03-30T05:53:03.194Z,7.10
2019-03-30T05:55:32.565Z,7.10
2019-03-30T05:58:01.908Z,7.20
2019-03-30T06:00:31.281Z,7.30
2019-03-30T06:03:00.623Z,7.40
2019-03-30T06:05:31.744Z,7.50
2019-03-30T06:08:02.813Z,7.60
2019-03-30T06:10:32.165Z,7.60
2019-03-30T06:13:01.591Z,7.70
2019-03-30T06:15:31.094Z,7.80
2019-03-30T06:18:00.442Z,7.90
2019-03-30T06:20:29.892Z,8.00
2019-03-30T06:22:59.281Z,8.20
2019-03-30T06:25:28.640Z,8.30
2019-03-30T06:27:58.105Z,8.20
2019-03-30T06:30:29.035Z,8.30
2019-03-30T06:32:58.511Z,8.20
2019-03-30T06:35:28.008Z,8.20
2019-03-30T06:37:58.547Z,8.20
2019-03-30T06:40:28.173Z,8.20
2019-03-30T06:42:57.549Z,8.20
2019-03-30T06:45:27.045Z,8.20
2019-03-30T06:47:56.402Z,8.20
2019-03-30T06:50:25.740Z,8.20
2019-03-30T06:52:57.858Z,8.20
2019-03-30T06:55:26.198Z,8.20
2019-03-30T06:57:55.617Z,8.30
2019-03-30T07:00:35.113Z,8.30
2019-03-30T07:03:06.539Z,8.40
2019-03-30T07:05:38.999Z,8.50
2019-03-30T07:08:13.115Z,8.70
2019-03-30T07:10:44.232Z,8.90
2019-03-30T07:13:14.657Z,9.40
2019-03-30T07:15:50.619Z,9.40
2019-03-30T07:18:20.804Z,9.40
2019-03-30T07:20:50.184Z,9.50
2019-03-30T07:23:19.608Z,9.90
2019-03-30T07:25:49.083Z,10.00
2019-03-30T07:28:18.666Z,10.20
2019-03-30T07:30:48.043Z,10.10
2019-03-30T07:33:17.387Z,10.10
2019-03-30T07:35:47.800Z,10.20
2019-03-30T07:38:17.280Z,10.20
2019-03-30T07:40:46.778Z,10.20
2019-03-30T07:43:16.205Z,10.20
2019-03-30T07:45:45.590Z,10.30
2019-03-30T07:48:15.110Z,10.70
2019-03-30T07:50:44.483Z,11.80
2019-03-30T07:53:25.618Z,12.60
2019-03-30T07:55:45.140Z,13.00
2019-03-30T07:58:14.593Z,13.50
2019-03-30T08:00:43.937Z,14.10
2019-03-30T08:03:13.372Z,13.90
2019-03-30T08:05:42.954Z,14.20
2019-03-30T08:08:12.449Z,14.10
2019-03-30T08:10:41.883Z,14.10
2019-03-30T08:13:11.276Z,13.90
2019-03-30T08:15:40.902Z,13.30
2019-03-30T08:18:10.311Z,12.90
2019-03-30T08:20:39.675Z,12.80
2019-03-30T08:23:09.222Z,12.70
2019-03-30T08:25:38.623Z,13.20
2019-03-30T08:28:08.073Z,14.40
2019-03-30T08:30:38.598Z,15.40
2019-03-30T08:33:07.948Z,15.90
2019-03-30T08:35:38.489Z,16.20
2019-03-30T08:38:07.940Z,16.50
2019-03-30T08:40:37.383Z,17.30
2019-03-30T08:43:07.832Z,17.40
2019-03-30T08:45:37.271Z,17.10
2019-03-30T08:48:06.683Z,16.60
2019-03-30T08:50:36.064Z,16.50
2019-03-30T08:53:05.512Z,16.00
2019-03-30T08:55:34.931Z,15.80
2019-03-30T08:58:04.437Z,15.60
2019-03-30T09:00:38.378Z,15.60
2019-03-30T09:03:07.814Z,15.50
2019-03-30T09:05:37.347Z,15.60
2019-03-30T09:08:06.928Z,15.50
2019-03-30T09:10:36.449Z,15.60
2019-03-30T09:13:06.025Z,16.30
2019-03-30T09:15:35.481Z,15.90
2019-03-30T09:18:05.761Z,15.80
2019-03-30T09:20:35.259Z,15.70
2019-03-30T09:23:04.773Z,15.70
2019-03-30T09:25:34.201Z,16.90
2019-03-30T09:28:03.568Z,16.10
2019-03-30T09:30:33.113Z,16.00
2019-03-30T09:33:02.623Z,15.90
2019-03-30T09:35:32.076Z,16.50
2019-03-30T09:38:01.489Z,17.40
2019-03-30T09:40:30.879Z,18.20
2019-03-30T09:43:00.237Z,18.30
2019-03-30T09:45:29.635Z,18.40
2019-03-30T09:47:59.069Z,18.80
2019-03-30T09:50:28.445Z,18.90
2019-03-30T09:52:58.933Z,19.30
2019-03-30T09:55:28.501Z,19.00
2019-03-30T09:57:57.943Z,18.40
2019-03-30T10:00:27.358Z,18.60
2019-03-30T10:02:56.818Z,18.70
2019-03-30T10:05:26.329Z,18.20
2019-03-30T10:07:55.702Z,17.90
2019-03-30T10:10:25.312Z,18.20
2019-03-30T10:12:54.769Z,18.30
2019-03-30T10:15:24.230Z,18.90
2019-03-30T10:17:55.217Z,19.10
2019-03-30T10:20:24.608Z,18.70
2019-03-30T10:22:54.017Z,18.70
2019-03-30T10:25:23.460Z,18.70
2019-03-30T10:27:54.088Z,18.30
2019-03-30T10:30:23.734Z,18.50
2019-03-30T10:32:53.210Z,18.60
2019-03-30T10:35:22.641Z,18.80
2019-03-30T10:37:52.107Z,19.50
2019-03-30T10:40:21.545Z,20.00
2019-03-30T10:42:50.985Z,20.70
2019-03-30T10:45:20.499Z,19.80
2019-03-30T10:47:49.941Z,19.40
2019-03-30T10:50:19.331Z,19.50
2019-03-30T10:52:50.247Z,19.20
2019-03-30T10:55:22.299Z,19.50
2019-03-30T10:57:52.700Z,19.70
2019-03-30T11:00:36.232Z,19.60
2019-03-30T11:03:06.181Z,19.80
2019-03-30T11:05:35.697Z,19.80
2019-03-30T11:08:06.400Z,19.30
2019-03-30T11:10:35.824Z,19.60
2019-03-30T11:13:05.532Z,19.90
2019-03-30T11:15:34.946Z,19.80
2019-03-30T11:18:05.249Z,19.20
2019-03-30T11:20:34.676Z,18.90
2019-03-30T11:23:04.104Z,19.40
2019-03-30T11:25:33.607Z,19.30
2019-03-30T11:28:02.965Z,19.70
2019-03-30T11:30:32.334Z,20.40
2019-03-30T11:33:01.771Z,20.60
2019-03-30T11:35:31.270Z,20.90
2019-03-30T11:38:00.641Z,20.50
2019-03-30T11:40:30.171Z,19.60
2019-03-30T11:42:59.779Z,19.40
2019-03-30T11:45:29.197Z,19.70
2019-03-30T11:47:58.567Z,19.90
2019-03-30T11:50:27.945Z,20.80
2019-03-30T11:52:57.380Z,20.10
2019-03-30T11:55:26.747Z,20.70
2019-03-30T11:57:56.177Z,20.40
2019-03-30T12:00:25.669Z,19.90
2019-03-30T12:02:55.048Z,19.80
2019-03-30T12:05:24.409Z,19.60
2019-03-30T12:07:53.767Z,19.90
2019-03-30T12:10:23.192Z,20.90
2019-03-30T12:12:54.121Z,20.30
2019-03-30T12:15:23.499Z,20.10
2019-03-30T12:17:52.914Z,20.00
2019-03-30T12:20:22.427Z,19.70
2019-03-30T12:22:51.803Z,19.80
2019-03-30T12:25:34.531Z,20.10
2019-03-30T12:27:51.615Z,19.80
2019-03-30T12:30:20.965Z,19.00
2019-03-30T12:32:50.341Z,18.50
2019-03-30T12:35:20.174Z,18.50
2019-03-30T12:37:49.761Z,19.10
2019-03-30T12:40:19.268Z,19.40
2019-03-30T12:42:48.821Z,18.90
2019-03-30T12:45:18.331Z,19.00
2019-03-30T12:47:50.996Z,19.20
2019-03-30T12:50:20.972Z,18.90
2019-03-30T12:52:50.715Z,18.90
2019-03-30T12:55:22.748Z,18.60
2019-03-30T12:57:51.128Z,18.90
2019-03-30T13:00:20.658Z,19.40
2019-03-30T13:02:50.047Z,19.20
2019-03-30T13:05:19.394Z,18.80
2019-03-30T13:07:49.552Z,18.90
2019-03-30T13:10:19.142Z,19.40
2019-03-30T13:12:48.574Z,19.30
2019-03-30T13:15:18.068Z,18.80
2019-03-30T13:17:49.185Z,18.80
2019-03-30T13:20:18.560Z,18.50
2019-03-30T13:22:48.067Z,19.00
2019-03-30T13:25:17.418Z,19.10
2019-03-30T13:27:46.796Z,19.20
2019-03-30T13:30:16.687Z,19.10
2019-03-30T13:32:47.285Z,19.10
2019-03-30T13:35:16.813Z,19.10
2019-03-30T13:37:46.251Z,19.00
2019-03-30T13:40:15.751Z,18.80
2019-03-30T13:42:45.136Z,18.50
2019-03-30T13:45:15.022Z,18.60
2019-03-30T13:47:44.376Z,18.70
2019-03-30T13:50:14.187Z,19.00
2019-03-30T13:52:43.618Z,19.80
2019-03-30T13:55:13.507Z,19.70
2019-03-30T13:57:45.576Z,19.50
2019-03-30T14:00:16.340Z,19.00
2019-03-30T14:02:45.742Z,19.40
2019-03-30T14:05:15.684Z,19.50
2019-03-30T14:07:45.739Z,19.70
2019-03-30T14:10:15.734Z,20.00
2019-03-30T14:12:45.156Z,20.00
2019-03-30T14:15:14.580Z,20.40
2019-03-30T14:17:43.944Z,20.30
2019-03-30T14:20:13.873Z,20.30
2019-03-30T14:22:43.234Z,20.40
2019-03-30T14:25:12.739Z,20.50
2019-03-30T14:27:42.102Z,20.60
2019-03-30T14:30:12.161Z,20.50
2019-03-30T14:32:41.668Z,20.10
2019-03-30T14:35:11.238Z,19.20
2019-03-30T14:37:40.675Z,19.20
2019-03-30T14:40:10.464Z,19.90
2019-03-30T14:42:40.800Z,20.70
2019-03-30T14:45:10.399Z,21.30
2019-03-30T14:47:39.747Z,20.90
2019-03-30T14:50:10.544Z,20.60
2019-03-30T14:52:40.942Z,20.40
2019-03-30T14:55:10.451Z,20.30
2019-03-30T14:57:39.832Z,20.00
2019-03-30T15:00:11.220Z,20.20
2019-03-30T15:02:40.763Z,20.50
2019-03-30T15:05:10.515Z,20.80
2019-03-30T15:07:39.877Z,20.80
2019-03-30T15:10:10.647Z,21.00
2019-03-30T15:12:41.079Z,21.10
2019-03-30T15:15:11.417Z,20.90
2019-03-30T15:17:41.316Z,21.10
2019-03-30T15:20:11.703Z,20.70
2019-03-30T15:22:42.332Z,20.70
2019-03-30T15:25:12.237Z,20.40
2019-03-30T15:27:41.736Z,20.20
2019-03-30T15:30:11.782Z,20.10
2019-03-30T15:32:41.141Z,19.90
2019-03-30T15:35:10.746Z,19.60
2019-03-30T15:37:40.181Z,19.60
2019-03-30T15:40:10.396Z,19.70
2019-03-30T15:42:40.655Z,19.60
2019-03-30T15:45:11.111Z,19.70
2019-03-30T15:47:41.455Z,19.50
2019-03-30T15:50:11.451Z,19.60
2019-03-30T15:52:40.974Z,19.40
2019-03-30T15:55:10.723Z,19.60
2019-03-30T15:57:40.279Z,19.60
2019-03-30T16:00:12.560Z,19.20
2019-03-30T16:02:42.103Z,19.40
2019-03-30T16:05:15.228Z,19.60
2019-03-30T16:07:42.927Z,19.70
2019-03-30T16:10:12.748Z,19.50
2019-03-30T16:12:43.781Z,19.40
2019-03-30T16:15:13.469Z,19.10
2019-03-30T16:17:42.982Z,19.00
2019-03-30T16:20:12.522Z,18.80
2019-03-30T16:22:41.888Z,18.80
2019-03-30T16:25:11.436Z,18.50
2019-03-30T16:27:40.943Z,18.60
2019-03-30T16:30:11.164Z,18.80
2019-03-30T16:32:40.614Z,18.50
2019-03-30T16:35:10.108Z,18.60
2019-03-30T16:37:39.453Z,18.40
2019-03-30T16:40:08.974Z,18.40
2019-03-30T16:42:38.320Z,18.50
2019-03-30T16:45:09.106Z,18.30
2019-03-30T16:47:38.514Z,18.30
2019-03-30T16:50:08.923Z,18.30
2019-03-30T16:52:41.023Z,18.30
2019-03-30T16:55:09.638Z,18.50
2019-03-30T16:57:43.542Z,18.50
2019-03-30T17:00:10.919Z,18.50
2019-03-30T17:02:40.415Z,18.00
2019-03-30T17:05:10.803Z,17.70
2019-03-30T17:07:40.224Z,17.50
2019-03-30T17:10:10.233Z,17.20
2019-03-30T17:12:39.684Z,17.10
2019-03-30T17:15:09.372Z,17.10
2019-03-30T17:17:38.814Z,17.10
2019-03-30T17:20:08.633Z,17.00
2019-03-30T17:22:38.212Z,16.80
2019-03-30T17:25:07.993Z,16.60
2019-03-30T17:27:37.353Z,16.60
2019-03-30T17:30:08.640Z,16.50
2019-03-30T17:32:38.137Z,16.50
2019-03-30T17:35:07.671Z,16.30
2019-03-30T17:37:37.176Z,16.20
2019-03-30T17:40:08.444Z,16.10
2019-03-30T17:42:39.001Z,16.10
2019-03-30T17:45:10.523Z,16.00
2019-03-30T17:47:41.201Z,16.00
2019-03-30T17:50:10.919Z,15.80
2019-03-30T17:52:40.402Z,15.70
2019-03-30T17:55:10.660Z,15.60
2019-03-30T17:57:40.392Z,15.60
2019-03-30T18:00:12.190Z,15.30
2019-03-30T18:02:41.566Z,15.20
2019-03-30T18:05:11.512Z,15.20
2019-03-30T18:07:40.880Z,15.10
2019-03-30T18:10:11.958Z,15.00
2019-03-30T18:12:41.431Z,14.90
2019-03-30T18:15:11.290Z,14.80
2019-03-30T18:17:40.760Z,14.80
2019-03-30T18:20:11.729Z,14.80
2019-03-30T18:22:42.150Z,14.60
2019-03-30T18:25:12.367Z,14.70
2019-03-30T18:27:41.807Z,14.50
2019-03-30T18:30:12.132Z,14.40
2019-03-30T18:32:43.394Z,14.30
2019-03-30T18:35:13.024Z,14.10
2019-03-30T18:37:42.909Z,14.20
2019-03-30T18:40:15.348Z,14.20
2019-03-30T18:42:44.891Z,14.10
2019-03-30T18:45:17.333Z,14.10
2019-03-30T18:47:47.001Z,14.00
2019-03-30T18:50:16.441Z,13.90
2019-03-30T18:52:46.357Z,13.90
2019-03-30T18:55:18.805Z,13.80
2019-03-30T18:57:48.186Z,13.80
2019-03-30T19:00:21.623Z,13.80
2019-03-30T19:02:51.135Z,13.80
2019-03-30T19:05:20.534Z,13.80
2019-03-30T19:07:50.277Z,13.80
2019-03-30T19:10:19.758Z,13.80
2019-03-30T19:12:49.185Z,13.80
2019-03-30T19:15:18.724Z,13.70
2019-03-30T19:17:48.092Z,13.60
2019-03-30T19:20:17.511Z,13.70
2019-03-30T19:22:47.030Z,13.60
2019-03-30T19:25:16.460Z,13.40
2019-03-30T19:27:45.947Z,13.30
2019-03-30T19:30:15.672Z,13.10
2019-03-30T19:32:45.132Z,13.00
2019-03-30T19:35:14.764Z,12.80
2019-03-30T19:37:44.322Z,12.70
2019-03-30T19:40:13.695Z,12.60
2019-03-30T19:42:43.315Z,12.50
2019-03-30T19:45:17.364Z,12.40
2019-03-30T19:47:47.165Z,12.40
2019-03-30T19:50:16.902Z,12.40
2019-03-30T19:52:46.473Z,12.30
2019-03-30T19:55:15.950Z,12.50
2019-03-30T19:57:45.420Z,12.40
2019-03-30T20:00:16.139Z,12.40
2019-03-30T20:02:45.795Z,12.40
2019-03-30T20:05:15.564Z,12.40
2019-03-30T20:07:45.151Z,12.20
2019-03-30T20:10:17.760Z,12.20
2019-03-30T20:12:47.281Z,12.00
2019-03-30T20:15:16.878Z,12.00
2019-03-30T20:17:49.387Z,11.80
2019-03-30T20:20:20.686Z,11.70
2019-03-30T20:22:50.211Z,11.70
2019-03-30T20:25:19.766Z,11.70
2019-03-30T20:27:53.868Z,11.60
2019-03-30T20:30:24.518Z,11.40
2019-03-30T20:32:56.732Z,11.50
2019-03-30T20:35:26.304Z,11.50
2019-03-30T20:37:55.877Z,11.40
2019-03-30T20:40:26.733Z,11.40
2019-03-30T20:42:56.254Z,11.40
2019-03-30T20:45:25.841Z,11.30
2019-03-30T20:47:55.296Z,11.30
2019-03-30T20:50:24.826Z,11.30
2019-03-30T20:52:54.530Z,11.20
2019-03-30T20:55:26.823Z,11.10
2019-03-30T20:57:56.525Z,11.10
2019-03-30T21:00:28.059Z,11.10
2019-03-30T21:02:57.628Z,11.10
2019-03-30T21:05:27.172Z,11.00
2019-03-30T21:07:56.682Z,10.70
2019-03-30T21:10:29.174Z,10.70
2019-03-30T21:12:58.910Z,10.70
2019-03-30T21:15:28.609Z,10.80
2019-03-30T21:17:58.362Z,10.90
2019-03-30T21:20:27.959Z,10.80
2019-03-30T21:22:57.580Z,10.80
2019-03-30T21:25:28.773Z,10.80
2019-03-30T21:27:58.309Z,10.70
2019-03-30T21:30:27.862Z,10.70
2019-03-30T21:32:57.561Z,10.70
2019-03-30T21:35:32.217Z,10.70
2019-03-30T21:38:01.906Z,10.70
2019-03-30T21:40:31.439Z,10.60
2019-03-30T21:43:00.835Z,10.50
2019-03-30T21:45:30.379Z,10.40
2019-03-30T21:47:59.807Z,10.40
2019-03-30T21:50:29.411Z,10.40
2019-03-30T21:52:58.844Z,10.40
2019-03-30T21:55:28.299Z,10.30
2019-03-30T21:57:57.662Z,10.20
2019-03-30T22:00:35.469Z,10.00
2019-03-30T22:03:06.281Z,10.20
2019-03-30T22:05:36.252Z,10.20
2019-03-30T22:08:07.599Z,10.30
2019-03-30T22:10:38.684Z,10.40
2019-03-30T22:13:08.219Z,10.50
2019-03-30T22:15:37.730Z,10.50
2019-03-30T22:18:07.092Z,10.40
2019-03-30T22:20:36.485Z,10.40
2019-03-30T22:23:06.294Z,10.30
2019-03-30T22:25:35.854Z,10.20
2019-03-30T22:28:06.490Z,10.30
2019-03-30T22:30:36.027Z,10.20
2019-03-30T22:33:06.185Z,10.20
2019-03-30T22:35:35.615Z,10.10
2019-03-30T22:38:09.390Z,10.00
2019-03-30T22:40:41.390Z,10.00
2019-03-30T22:43:09.864Z,10.00
2019-03-30T22:45:40.985Z,10.00
2019-03-30T22:48:10.497Z,9.90
2019-03-30T22:50:39.847Z,9.80
2019-03-30T22:53:09.214Z,9.90
2019-03-30T22:55:38.575Z,9.90
2019-03-30T22:58:07.945Z,9.90
2019-03-30T23:00:42.131Z,9.80
2019-03-30T23:03:13.340Z,9.80
2019-03-30T23:05:42.705Z,9.80
2019-03-30T23:08:13.680Z,9.80
2019-03-30T23:10:43.027Z,9.70
2019-03-30T23:13:12.480Z,9.70
2019-03-30T23:15:44.492Z,9.60
2019-03-30T23:18:13.846Z,9.50
2019-03-30T23:20:45.391Z,9.60
2019-03-30T23:23:14.798Z,9.50
2019-03-30T23:25:44.171Z,9.60
2019-03-30T23:28:13.599Z,9.50
2019-03-30T23:30:53.615Z,9.50
2019-03-30T23:33:14.401Z,9.50
2019-03-30T23:35:43.771Z,9.60
2019-03-30T23:38:13.187Z,9.50
2019-03-30T23:40:44.185Z,9.50
2019-03-30T23:43:13.621Z,9.40
2019-03-30T23:45:44.919Z,9.40
2019-03-30T23:48:14.572Z,9.50
2019-03-30T23:50:46.937Z,9.50
2019-03-30T23:53:16.296Z,9.40
2019-03-30T23:55:45.847Z,9.40
2019-03-30T23:58:15.208Z,9.40
